Anglian Lady — VOLP — position and weather

sailwx.info

Track history (hours):
 
Tides and Currents Weather Stations Pressure Air Temp Water Temp Dewpoint Dewpoint Depression Visibility Wind Speed Wind Dir Waves Ship Positions

Anglian Lady

Last reported at 2016-Dec-09 04:32 UTC. Time now 2016-Dec-11 11:56 UTC.
Position N 45°52' W 085°10'.

Length 32 m.

Type: Tug. MMSI: 316002238.

Date/timePositionNaut miles runAvg speedWind from/ knotsBaromVisibWave heightAir tempDewpointWater temp
2016-Dec-09 04:32N 45°52' W 085°10'8 7.2
2016-Dec-09 03:22N 45°50' W 084°58'6 7.2
2016-Dec-09 02:33N 45°49' W 084°50'8 6.6
2016-Dec-09 01:24N 45°50' W 084°39'  
2016-Dec-05 13:29N 45°51' W 084°26'8 8.6
2016-Dec-05 12:33N 45°50' W 084°38'9 9.4
2016-Dec-05 11:33N 45°49' W 084°51'9 9.4
2016-Dec-05 10:33N 45°50' W 085°04'8 7.6
2016-Dec-05 09:33N 45°44' W 085°11'9 9.2
2016-Dec-05 08:33N 45°36' W 085°19'9 9.0
2016-Dec-05 07:33N 45°29' W 085°26'9 9.2
2016-Dec-05 06:33N 45°22' W 085°34'  
2016-Nov-30 07:32N 45°51' W 085°09'8 7.0
2016-Nov-30 06:19N 45°50' W 084°57'  
Track history (hours):
 
Tides and Currents Weather Stations Pressure Air Temp Water Temp Dewpoint Dewpoint Depression Visibility Wind Speed Wind Dir Waves Ship Positions

Anglian Lady

Last reported at 2016-Dec-09 04:32 UTC. Time now 2016-Dec-11 11:56 UTC.
Position N 45°52' W 085°10'.

Length 32 m.

Type: Tug. MMSI: 316002238.

Date/timePositionNaut miles runAvg speedWind from/ knotsBaromVisibWave heightAir tempDewpointWater temp
2016-Dec-09 04:32N 45°52' W 085°10'8 7.2
2016-Dec-09 03:22N 45°50' W 084°58'6 7.2
2016-Dec-09 02:33N 45°49' W 084°50'8 6.6
2016-Dec-09 01:24N 45°50' W 084°39'  
2016-Dec-05 13:29N 45°51' W 084°26'8 8.6
2016-Dec-05 12:33N 45°50' W 084°38'9 9.4
2016-Dec-05 11:33N 45°49' W 084°51'9 9.4
2016-Dec-05 10:33N 45°50' W 085°04'8 7.6
2016-Dec-05 09:33N 45°44' W 085°11'9 9.2
2016-Dec-05 08:33N 45°36' W 085°19'9 9.0
2016-Dec-05 07:33N 45°29' W 085°26'9 9.2
2016-Dec-05 06:33N 45°22' W 085°34'  
2016-Nov-30 07:32N 45°51' W 085°09'8 7.0
2016-Nov-30 06:19N 45°50' W 084°57'  

Dump ship's entire track history